DW8790 Maspalomas ES current weather conditions

sailwx.info

Wind from 265

Air temperature 21.7° C
Dewpoint 18.5° C

Last reported at 2016-Jul-30 02:55 UTC.
Time now 2016-Jul-30 03:34 UTC

Location: N 27°46' W 015°34'.
View on Google Maps.

See reports from other nearby stations

  
Tides and Currents Weather Stations Pressure Air Temp Water Temp Dewpoint Dewpoint Depression Visibility Wind Speed Wind Dir Waves Ship Positions
date/time (UTC)wind fromknots sea level pressurealtimeterstation pressurevisibilityair tempwater tempwave heightnotes
2016-Jul-30 02:55 265 21.7
2016-Jul-30 02:50 265 21.7
2016-Jul-30 02:45 267 0 gusting 4 21.7
2016-Jul-30 02:35 305 2 gusting 5 21.7
2016-Jul-30 02:25 278 1 gusting 5 21.7
2016-Jul-30 02:20 264 2 gusting 8 21.7
2016-Jul-30 02:15 263 5 gusting 7 21.7
2016-Jul-30 02:10 256 4 gusting 7 21.7
2016-Jul-30 02:05 221 1 gusting 5 22.2
2016-Jul-30 02:00 194 1 gusting 4 22.2
2016-Jul-30 01:55 190 22.2
2016-Jul-30 01:50 166 1 gusting 2 22.2
2016-Jul-30 01:45 128 1 gusting 5 22.8
2016-Jul-30 01:40 105 1 gusting 4 22.8
2016-Jul-30 01:35 163 22.8
2016-Jul-30 01:30 275 0 gusting 4 22.8
2016-Jul-30 01:25 254 1 gusting 4 22.8
2016-Jul-30 01:20 257 2 gusting 5 22.8
2016-Jul-30 01:15 257 4 gusting 6 22.8
2016-Jul-30 01:10 239 2 gusting 5 22.2
2016-Jul-30 01:05 290 4 gusting 5 22.2
2016-Jul-30 01:00 324 0 gusting 4 22.2
2016-Jul-30 00:55 294 1 gusting 7 22.2
2016-Jul-30 00:50 300 5 gusting 7 22.2
2016-Jul-30 00:40 270 1 gusting 4 22.2
2016-Jul-30 00:35 270 1 gusting 4 22.2
2016-Jul-30 00:30 274 1 gusting 4 22.2
2016-Jul-30 00:25 250 2 gusting 6 22.8
2016-Jul-30 00:20 233 2 gusting 6 22.8
2016-Jul-30 00:15 282 3 gusting 6 22.8
2016-Jul-30 00:10 252 5 gusting 10 22.8
2016-Jul-30 00:05 268 2 gusting 6 22.8
2016-Jul-30 00:00 297 2 gusting 7 22.8
2016-Jul-29 23:55 300 6 gusting 10 22.8
2016-Jul-29 23:50 297 4 gusting 10 22.8
2016-Jul-29 23:45 266 5 gusting 8 22.8
2016-Jul-29 23:40 303 3 gusting 6 22.8
2016-Jul-29 23:35 265 4 gusting 6 22.8
2016-Jul-29 23:30 222 2 gusting 5 22.8
2016-Jul-29 23:25 228 2 gusting 6 22.8
2016-Jul-29 23:20 186 22.8
2016-Jul-29 23:15 142 22.8
2016-Jul-29 23:10 107 0 gusting 1 22.8
2016-Jul-29 23:05 284 22.8
2016-Jul-29 23:00 284 22.8
2016-Jul-29 22:55 284 22.8
2016-Jul-29 22:50 284 22.8
2016-Jul-29 22:45 284 22.8
2016-Jul-29 22:40 284 22.8
2016-Jul-29 22:35 284 22.8
2016-Jul-29 22:30 284 22.8
2016-Jul-29 22:25 284 0 gusting 4 22.8
2016-Jul-29 22:20 263 2 gusting 5 22.8
2016-Jul-29 22:15 268 1 gusting 5 22.8
2016-Jul-29 22:10 262 2 gusting 5 22.8
2016-Jul-29 22:05 262 4 gusting 6 22.8
2016-Jul-29 21:55 266 1 gusting 2 23.3
2016-Jul-29 21:50 270 1 gusting 2 23.3
2016-Jul-29 21:45 219 1 gusting 4 23.3
2016-Jul-29 21:40 242 1 gusting 2 23.3
2016-Jul-29 21:35 242 0 gusting 2 23.3
2016-Jul-29 21:30 242 1 gusting 2 23.3
2016-Jul-29 21:25 247 3 gusting 5 23.3
2016-Jul-29 21:20 265 2 gusting 4 23.3
2016-Jul-29 21:15 277 1 gusting 2 23.3
2016-Jul-29 21:10 277 23.3
2016-Jul-29 21:05 277 1 gusting 2 23.3
2016-Jul-29 21:00 246 0 gusting 2 23.3
2016-Jul-29 20:55 246 23.3
2016-Jul-29 20:50 246 0 gusting 2 23.3
2016-Jul-29 20:45 257 2 gusting 4 23.3
2016-Jul-29 20:40 245 2 gusting 5 23.3
2016-Jul-29 20:35 215 2 gusting 5 23.3
2016-Jul-29 20:30 224 4 gusting 5 23.3
2016-Jul-29 20:25 228 4 gusting 6 23.3
2016-Jul-29 20:20 243 4 gusting 6 23.3
2016-Jul-29 20:15 265 4 gusting 6 23.3
2016-Jul-29 20:10 259 1 gusting 4 23.3
2016-Jul-29 20:05 246 0 gusting 2 23.3
2016-Jul-29 20:00 246 23.3
2016-Jul-29 19:55 246 23.3
2016-Jul-29 19:50 246 23.3
2016-Jul-29 19:45 246 23.3
2016-Jul-29 19:40 246 23.3
2016-Jul-29 19:35 246 0 gusting 2 23.3
2016-Jul-29 19:30 266 0 gusting 2 22.8
2016-Jul-29 19:25 271 1 gusting 2 22.8
2016-Jul-29 19:20 237 1 gusting 2 22.8
2016-Jul-29 19:15 259 2 gusting 5 22.8
2016-Jul-29 19:10 268 2 gusting 6 23.3
2016-Jul-29 19:05 226 2 gusting 5 23.3
2016-Jul-29 19:00 227 3 gusting 6 23.3
2016-Jul-29 18:55 239 4 gusting 6 23.3
2016-Jul-29 18:50 227 4 gusting 6 23.3
2016-Jul-29 18:45 253 2 gusting 6 23.3
2016-Jul-29 18:40 195 2 gusting 5 23.3
2016-Jul-29 18:35 211 2 gusting 4 23.3
2016-Jul-29 18:30 212 3 gusting 6 23.9
2016-Jul-29 18:25 200 2 gusting 6 23.9
2016-Jul-29 18:20 179 2 gusting 6 23.9
2016-Jul-29 18:15 237 2 gusting 6 23.9
2016-Jul-29 18:10 257 4 gusting 6 23.9
2016-Jul-29 18:05 258 3 gusting 6 23.9
2016-Jul-29 18:00 235 4 gusting 7 24.4
2016-Jul-29 17:55 204 4 gusting 6 24.4
2016-Jul-29 17:50 210 4 gusting 8 24.4
2016-Jul-29 17:45 241 4 gusting 6 25.0
2016-Jul-29 17:40 221 2 gusting 7 25.0
2016-Jul-29 17:35 209 5 gusting 10 25.0
2016-Jul-29 17:30 215 5 gusting 10 25.6
2016-Jul-29 17:25 209 4 gusting 8 25.6
2016-Jul-29 17:20 230 6 gusting 8 26.7
2016-Jul-29 17:15 206 4 gusting 6 26.7
2016-Jul-29 17:10 213 5 gusting 8 26.7
2016-Jul-29 17:05 230 4 gusting 8 26.7
2016-Jul-29 16:55 245 4 gusting 7 26.7
2016-Jul-29 16:50 227 5 gusting 8 26.7
2016-Jul-29 16:45 216 4 gusting 7 26.7
2016-Jul-29 16:40 232 4 gusting 7 26.7
2016-Jul-29 16:35 237 5 gusting 7 26.7
2016-Jul-29 16:30 234 4 gusting 7 26.7
2016-Jul-29 16:25 225 5 gusting 10 26.7
2016-Jul-29 16:20 231 4 gusting 10 26.7
2016-Jul-29 16:15 216 5 gusting 10 26.7
2016-Jul-29 16:10 238 6 gusting 7 27.2
2016-Jul-29 16:05 232 4 gusting 7 26.7
2016-Jul-29 15:55 231 4 gusting 7 26.7
2016-Jul-29 15:50 202 3 gusting 6 26.7
2016-Jul-29 15:45 232 4 gusting 7 26.7
2016-Jul-29 15:40 225 4 gusting 10 26.1
2016-Jul-29 15:35 212 3 gusting 6 26.7
2016-Jul-29 15:30 276 4 gusting 6 26.1
2016-Jul-29 15:25 234 5 gusting 7 26.7
2016-Jul-29 15:20 232 3 gusting 6 26.1
2016-Jul-29 15:15 196 4 gusting 8 25.6
2016-Jul-29 15:10 244 5 gusting 8 26.1
2016-Jul-29 15:05 219 5 gusting 10 26.1
2016-Jul-29 15:00 230 5 gusting 10 26.1
2016-Jul-29 14:55 201 5 gusting 10 26.1
2016-Jul-29 14:50 212 4 gusting 10 26.1
2016-Jul-29 14:45 221 5 gusting 8 26.1
2016-Jul-29 14:40 224 5 gusting 7 26.1
2016-Jul-29 14:35 261 4 gusting 7 26.1
2016-Jul-29 14:30 242 4 gusting 8 26.1
2016-Jul-29 14:25 247 5 gusting 8 25.6
2016-Jul-29 14:20 259 5 gusting 8 25.6
2016-Jul-29 14:15 238 6 gusting 10 25.6
2016-Jul-29 14:10 237 6 gusting 10 25.6
2016-Jul-29 14:05 221 6 gusting 13 26.1
2016-Jul-29 14:00 248 6 gusting 13 26.7
2016-Jul-29 13:55 234 6 gusting 10 26.7
2016-Jul-29 13:50 199 6 gusting 11 26.7
2016-Jul-29 13:45 190 4 gusting 10 26.7
2016-Jul-29 13:40 240 6 gusting 13 26.7
2016-Jul-29 13:35 228 6 gusting 13 26.7
2016-Jul-29 13:30 223 6 gusting 12 26.7
2016-Jul-29 13:25 226 6 gusting 12 26.7
2016-Jul-29 13:20 217 6 gusting 13 26.7
2016-Jul-29 13:15 192 5 gusting 10 26.1
2016-Jul-29 13:10 226 7 gusting 11 26.1
2016-Jul-29 13:05 228 6 gusting 10 26.7
2016-Jul-29 12:55 229 7 gusting 12 26.7
2016-Jul-29 12:40 252 6 gusting 10 26.7
2016-Jul-29 12:35 238 6 gusting 10 26.7
2016-Jul-29 12:30 250 4 gusting 10 26.7
2016-Jul-29 12:25 233 4 gusting 7 26.7
2016-Jul-29 12:20 243 5 gusting 6 26.7
2016-Jul-29 12:15 223 4 gusting 6 26.7
2016-Jul-29 12:10 256 3 gusting 7 26.1
2016-Jul-29 12:05 235 2 gusting 7 26.1
2016-Jul-29 12:00 283 0 gusting 6 26.1
2016-Jul-29 11:55 206 2 gusting 5 26.1
2016-Jul-29 11:50 235 2 gusting 6 25.6
2016-Jul-29 11:45 214 0 gusting 6 25.6
2016-Jul-29 11:40 247 3 gusting 6 25.6
2016-Jul-29 11:35 246 4 gusting 6 25.0
2016-Jul-29 11:30 252 2 gusting 6 25.0
2016-Jul-29 11:25 274 4 gusting 7 25.0
2016-Jul-29 11:20 255 3 gusting 6 25.0
2016-Jul-29 11:15 233 4 gusting 10 24.4
2016-Jul-29 11:10 212 5 gusting 7 24.4
2016-Jul-29 11:05 240 5 gusting 7 24.4
2016-Jul-29 11:00 250 5 gusting 8 25.0
2016-Jul-29 10:55 230 4 gusting 10 24.4
2016-Jul-29 10:50 229 5 gusting 8 24.4
2016-Jul-29 10:45 232 5 gusting 10 24.4
2016-Jul-29 10:40 206 5 gusting 7 24.4
2016-Jul-29 10:35 202 5 gusting 8 24.4
2016-Jul-29 10:30 232 6 gusting 10 24.4
2016-Jul-29 10:25 199 4 gusting 10 24.4
2016-Jul-29 10:20 211 4 gusting 7 24.4
2016-Jul-29 10:15 198 3 gusting 6 24.4
2016-Jul-29 10:10 210 3 gusting 6 24.4
2016-Jul-29 10:05 225 4 gusting 6 24.4
2016-Jul-29 10:00 237 3 gusting 6 23.9
2016-Jul-29 09:55 228 4 gusting 6 24.4
2016-Jul-29 09:50 245 2 gusting 6 24.4
2016-Jul-29 09:45 237 1 gusting 5 24.4
2016-Jul-29 09:40 235 2 gusting 6 24.4
2016-Jul-29 09:35 220 1 gusting 4 24.4
2016-Jul-29 09:30 185 1 gusting 5 24.4
2016-Jul-29 09:25 207 2 gusting 5 23.9
2016-Jul-29 09:20 230 1 gusting 4 23.9
2016-Jul-29 09:15 203 1 gusting 4 23.9
2016-Jul-29 09:10 242 1 gusting 4 23.9
2016-Jul-29 09:05 205 23.3
2016-Jul-29 09:00 241 1 gusting 4 23.3
2016-Jul-29 08:55 272 1 gusting 4 23.3
2016-Jul-29 08:50 207 1 gusting 4 23.9
2016-Jul-29 08:45 202 0 gusting 2 23.9
2016-Jul-29 08:40 185 0 gusting 2 23.9
2016-Jul-29 08:35 094 23.9
2016-Jul-29 08:30 094 23.3
2016-Jul-29 08:25 087 0 gusting 2 23.3
2016-Jul-29 08:20 089 0 gusting 1 23.3
2016-Jul-29 08:15 065 22.8
2016-Jul-29 08:10 065 22.8
2016-Jul-29 08:05 059 0 gusting 2 22.8
2016-Jul-29 08:00 132 22.2
2016-Jul-29 07:55 132 22.2
2016-Jul-29 07:50 132 21.7
2016-Jul-29 07:45 132 1 gusting 2 21.7
2016-Jul-29 07:40 154 2 gusting 5 21.7
2016-Jul-29 07:35 165 2 gusting 5 21.7
2016-Jul-29 07:30 191 1 gusting 2 21.7
2016-Jul-29 07:25 211 0 gusting 2 21.1
2016-Jul-29 07:20 211 21.1
2016-Jul-29 07:15 211 21.1
2016-Jul-29 07:10 225 0 gusting 2 20.6
2016-Jul-29 07:05 306 20.6
2016-Jul-29 07:00 306 0 gusting 2 20.6
2016-Jul-29 06:55 306 20.6
2016-Jul-29 06:50 306 20.6
2016-Jul-29 06:45 306 1 gusting 2 20.6
2016-Jul-29 06:40 306 2 gusting 5 20.6
2016-Jul-29 06:35 300 2 gusting 5 20.6
2016-Jul-29 06:30 315 1 gusting 2 20.6
2016-Jul-29 06:25 315 1 gusting 2 20.6
2016-Jul-29 06:20 315 0 gusting 2 20.6
2016-Jul-29 06:15 315 20.6
2016-Jul-29 06:10 315 20.6
2016-Jul-29 06:05 315 20.6
2016-Jul-29 06:00 315 20.6
2016-Jul-29 05:55 315 20.6
2016-Jul-29 05:50 315 20.6
2016-Jul-29 05:45 315 20.6
2016-Jul-29 05:40 315 20.6
2016-Jul-29 05:35 315 21.1
2016-Jul-29 05:30 315 1 gusting 2 21.1
2016-Jul-29 05:25 325 1 gusting 2 21.1
2016-Jul-29 05:20 319 1 gusting 2 21.1
2016-Jul-29 05:15 181 21.1
2016-Jul-29 05:10 181 21.1
2016-Jul-29 05:05 181 0 gusting 2 21.1
2016-Jul-29 05:00 134 1 gusting 4 21.1
2016-Jul-29 04:55 134 1 gusting 2 21.1
2016-Jul-29 04:50 153 0 gusting 2 21.1
2016-Jul-29 04:45 121 21.1
2016-Jul-29 04:40 306 21.1
2016-Jul-29 04:35 306 21.1
2016-Jul-29 04:30 306 21.1
2016-Jul-29 04:25 306 21.1
2016-Jul-29 04:20 306 21.1
2016-Jul-29 04:15 306 2 gusting 5 21.1
2016-Jul-29 04:10 291 1 gusting 2 21.1
2016-Jul-29 04:05 313 21.1
2016-Jul-29 04:00 313 1 gusting 2 21.1
2016-Jul-29 03:55 268 21.1
2016-Jul-29 03:50 268 21.1
2016-Jul-29 03:45 269 21.1
2016-Jul-29 03:40 268 21.1
2016-Jul-29 03:35 268 1 gusting 4 21.1
2016-Jul-29 03:30 239 2 gusting 6 21.1
2016-Jul-29 03:25 250 3 gusting 5 21.1
2016-Jul-29 03:20 259 1 gusting 2 21.1
2016-Jul-29 03:15 259 2 gusting 4 21.1
2016-Jul-29 03:10 259 0 gusting 2 21.1
2016-Jul-29 03:05 259 0 gusting 2 21.1
2016-Jul-29 02:55 259 21.1
2016-Jul-29 02:50 259 21.1
2016-Jul-29 02:45 259 21.7
2016-Jul-29 02:35 259 21.7
2016-Jul-29 02:30 259 21.7
2016-Jul-29 02:25 259 21.7
2016-Jul-29 02:20 259 21.7
2016-Jul-29 02:15 259 21.7
2016-Jul-29 02:10 259 21.7
2016-Jul-29 02:05 259 21.7
2016-Jul-29 02:00 259 21.7
2016-Jul-29 01:55 259 21.7
2016-Jul-29 01:50 259 0 gusting 2 21.7
2016-Jul-29 01:45 249 3 gusting 5 21.7
2016-Jul-29 01:40 244 3 gusting 5 21.7
2016-Jul-29 01:35 199 0 gusting 2 21.7
2016-Jul-29 01:30 199 1 gusting 4 21.7
2016-Jul-29 01:25 192 2 gusting 5 21.7
2016-Jul-29 01:20 183 0 gusting 2 21.7
2016-Jul-29 01:15 230 2 gusting 4 21.7
2016-Jul-29 01:10 273 1 gusting 5 21.7
2016-Jul-29 01:05 256 0 gusting 2 21.7
2016-Jul-29 01:00 267 21.7
2016-Jul-29 00:55 263 0 gusting 4 21.7
2016-Jul-29 00:50 271 0 gusting 2 21.7
2016-Jul-29 00:40 271 0 gusting 2 21.7
2016-Jul-29 00:35 271 1 gusting 2 21.7
2016-Jul-29 00:30 270 21.7
2016-Jul-29 00:25 301 0 gusting 4 21.7
2016-Jul-29 00:20 240 0 gusting 4 21.7
2016-Jul-29 00:15 222 21.7
2016-Jul-29 00:10 222 21.7
2016-Jul-29 00:05 222 21.7
2016-Jul-29 00:00 222 21.7
2016-Jul-28 23:55 222 21.7
2016-Jul-28 23:50 222 21.7
2016-Jul-28 23:45 222 21.7
2016-Jul-28 23:40 222 21.7
2016-Jul-28 23:35 222 21.7
2016-Jul-28 23:30 222 21.7
2016-Jul-28 23:25 222 0 gusting 2 21.7
2016-Jul-28 23:20 222 22.2
2016-Jul-28 23:15 222 2 gusting 4 22.2
2016-Jul-28 23:10 164 1 gusting 2 22.2
2016-Jul-28 23:05 164 1 gusting 2 22.2
2016-Jul-28 23:00 181 0 gusting 2 22.2
2016-Jul-28 22:55 181 1 gusting 4 22.2
2016-Jul-28 22:50 181 1 gusting 4 22.2
2016-Jul-28 22:45 181 0 gusting 2 22.2
2016-Jul-28 22:40 181 0 gusting 2 22.2
2016-Jul-28 22:35 181 22.2
2016-Jul-28 22:30 181 22.8
2016-Jul-28 22:25 181 0 gusting 2 22.8
2016-Jul-28 22:20 193 1 gusting 4 22.8
2016-Jul-28 22:15 198 0 gusting 2 22.8
2016-Jul-28 22:10 197 0 gusting 2 22.8
2016-Jul-28 22:05 214 1 gusting 2 22.8
2016-Jul-28 22:00 202 22.8
2016-Jul-28 21:55 263 22.8
2016-Jul-28 21:50 256 0 gusting 2 22.8
2016-Jul-28 21:45 248 0 gusting 2 22.8
2016-Jul-28 21:40 252 22.8
2016-Jul-28 21:35 252 1 gusting 2 22.8
2016-Jul-28 21:30 230 1 gusting 2 22.8
2016-Jul-28 21:25 225 1 gusting 4 22.8
2016-Jul-28 21:20 241 2 gusting 4 22.8
2016-Jul-28 21:15 244 1 gusting 2 22.8
2016-Jul-28 21:10 244 0 gusting 2 22.8
2016-Jul-28 21:05 244 1 gusting 4 22.8
2016-Jul-28 21:00 256 0 gusting 4 22.8
2016-Jul-28 20:55 248 2 gusting 4 22.8
2016-Jul-28 20:50 244 4 gusting 6 22.8
2016-Jul-28 20:45 241 4 gusting 6 22.8
2016-Jul-28 20:40 244 4 gusting 6 22.8
2016-Jul-28 20:35 229 4 gusting 6 23.3
2016-Jul-28 20:30 247 2 gusting 6 23.3
2016-Jul-28 20:25 223 2 gusting 6 23.3
2016-Jul-28 20:20 184 1 gusting 6 23.3
2016-Jul-28 20:15 216 2 gusting 5 23.9
2016-Jul-28 20:10 188 2 gusting 4 23.9
2016-Jul-28 20:05 234 1 gusting 4 23.9
2016-Jul-28 20:00 238 2 gusting 4 24.4
2016-Jul-28 19:55 223 2 gusting 5 24.4
2016-Jul-28 19:50 229 5 gusting 6 24.4
2016-Jul-28 19:45 196 2 gusting 6 24.4
2016-Jul-28 19:40 241 4 gusting 6 25.0
2016-Jul-28 19:35 232 2 gusting 4 25.0
2016-Jul-28 19:30 213 2 gusting 6 25.0
2016-Jul-28 19:25 261 4 gusting 6 24.4
2016-Jul-28 19:20 262 4 gusting 6 24.4
2016-Jul-28 19:15 230 2 gusting 6 24.4
2016-Jul-28 19:10 242 4 gusting 6 24.4
2016-Jul-28 19:05 228 3 gusting 6 24.4
2016-Jul-28 19:00 228 4 gusting 6 24.4
2016-Jul-28 18:55 244 4 gusting 6 25.0
2016-Jul-28 18:50 232 5 gusting 7 25.0
2016-Jul-28 18:45 215 2 gusting 6 25.6
2016-Jul-28 18:40 238 2 gusting 6 25.6
2016-Jul-28 18:35 237 4 gusting 6 25.0
2016-Jul-28 18:30 229 5 gusting 7 25.6
2016-Jul-28 18:25 248 4 gusting 6 25.6
2016-Jul-28 18:20 218 4 gusting 8 25.6
2016-Jul-28 18:15 226 5 gusting 6 26.1
2016-Jul-28 18:00 222 4 gusting 6 26.1
2016-Jul-28 17:55 189 2 gusting 6 26.7
2016-Jul-28 17:50 218 2 gusting 5 26.7
2016-Jul-28 17:45 226 2 gusting 6 26.7
2016-Jul-28 17:40 185 3 gusting 6 26.7
2016-Jul-28 17:35 210 2 gusting 6 26.7
2016-Jul-28 17:30 182 2 gusting 6 26.7
2016-Jul-28 17:25 190 2 gusting 5 26.7
2016-Jul-28 17:20 207 4 gusting 6 26.7
2016-Jul-28 17:15 235 3 gusting 7 26.7
2016-Jul-28 17:10 246 5 gusting 6 26.7
2016-Jul-28 17:05 213 4 gusting 6 26.7
2016-Jul-28 17:00 215 5 gusting 7 27.2
2016-Jul-28 16:55 188 4 gusting 8 27.2
2016-Jul-28 16:50 234 6 gusting 7 27.2
2016-Jul-28 16:45 225 5 gusting 8 27.2
2016-Jul-28 16:40 221 6 gusting 10 27.2
2016-Jul-28 16:35 220 6 gusting 10 27.2
2016-Jul-28 16:25 217 6 gusting 10 27.2
2016-Jul-28 16:20 260 5 gusting 7 27.2
2016-Jul-28 16:15 243 5 gusting 10 26.7
2016-Jul-28 16:10 228 5 gusting 10 26.7
2016-Jul-28 16:05 189 6 gusting 10 26.7
2016-Jul-28 16:00 259 6 gusting 10 27.2
2016-Jul-28 15:55 239 4 gusting 8 27.2
2016-Jul-28 15:50 221 5 gusting 10 27.2
2016-Jul-28 15:45 234 4 gusting 7 27.8
2016-Jul-28 15:40 217 3 gusting 6 27.8
2016-Jul-28 15:35 213 5 gusting 10 28.3
2016-Jul-28 15:30 224 2 gusting 6 28.3
2016-Jul-28 15:25 215 1 gusting 6 27.8
2016-Jul-28 15:20 210 2 gusting 6 27.8
2016-Jul-28 15:15 247 3 gusting 6 27.2
2016-Jul-28 15:10 187 1 gusting 5 27.2
2016-Jul-28 15:05 280 3 gusting 5 27.2
2016-Jul-28 15:00 243 5 gusting 6 27.2
2016-Jul-28 14:55 180 2 gusting 4 26.7
2016-Jul-28 14:50 254 3 gusting 6 26.7
2016-Jul-28 14:45 201 2 gusting 5 26.1
2016-Jul-28 14:40 161 3 gusting 5 26.1
2016-Jul-28 14:35 239 4 gusting 6 26.1
2016-Jul-28 14:30 246 5 gusting 7 25.6
2016-Jul-28 14:25 232 5 gusting 8 25.6
2016-Jul-28 14:20 195 6 gusting 7 26.1
2016-Jul-28 14:15 206 5 gusting 10 25.6
2016-Jul-28 14:10 209 6 gusting 10 26.1
2016-Jul-28 14:05 215 6 gusting 11 26.1
2016-Jul-28 14:00 221 6 gusting 10 26.1
2016-Jul-28 13:55 217 5 gusting 11 26.7
2016-Jul-28 13:50 207 6 gusting 11 26.7
2016-Jul-28 13:45 227 6 gusting 11 27.2
2016-Jul-28 13:40 224 6 gusting 10 28.3
2016-Jul-28 13:35 228 6 gusting 10 28.9
2016-Jul-28 13:30 206 5 gusting 11 28.9
2016-Jul-28 13:25 198 5 gusting 7 28.9
2016-Jul-28 13:20 231 6 gusting 10 28.9
2016-Jul-28 13:15 238 6 gusting 10 28.3
2016-Jul-28 13:10 218 5 gusting 10 28.3
2016-Jul-28 13:05 218 6 gusting 11 27.8
2016-Jul-28 13:00 243 6 gusting 10 27.8
2016-Jul-28 12:55 237 5 gusting 10 27.2
2016-Jul-28 12:50 246 6 gusting 10 26.7
2016-Jul-28 12:40 216 4 gusting 6 26.7
2016-Jul-28 12:35 206 3 gusting 6 26.7
2016-Jul-28 12:30 193 4 gusting 8 26.7
2016-Jul-28 12:25 204 5 gusting 10 26.7
2016-Jul-28 12:20 225 6 gusting 10 27.2
2016-Jul-28 12:15 192 5 gusting 6 27.8
2016-Jul-28 12:10 226 4 gusting 6 27.8
2016-Jul-28 12:05 206 1 gusting 6 27.8
2016-Jul-28 12:00 169 3 gusting 6 27.2
2016-Jul-28 11:55 197 3 gusting 6 27.2
2016-Jul-28 11:50 249 2 gusting 6 27.2
2016-Jul-28 11:45 227 1 gusting 6 27.2
2016-Jul-28 11:40 201 1 gusting 4 26.7
2016-Jul-28 11:35 068 26.1
2016-Jul-28 11:30 196 0 gusting 4 26.1
2016-Jul-28 11:25 201 2 gusting 5 26.1
2016-Jul-28 11:20 244 1 gusting 6 25.6
2016-Jul-28 11:15 143 1 gusting 6 25.6
2016-Jul-28 11:10 211 2 gusting 6 25.6
2016-Jul-28 11:05 231 4 gusting 7 25.0
2016-Jul-28 11:00 259 4 gusting 7 25.0
2016-Jul-28 10:55 202 3 gusting 6 25.0
2016-Jul-28 10:50 189 3 gusting 7 25.0
2016-Jul-28 10:45 250 3 gusting 6 25.0
2016-Jul-28 10:40 195 5 gusting 7 24.4
2016-Jul-28 10:35 211 4 gusting 6 24.4
2016-Jul-28 10:30 220 4 gusting 7 24.4
2016-Jul-28 10:25 232 4 gusting 7 24.4
2016-Jul-28 10:20 198 2 gusting 8 24.4
2016-Jul-28 10:15 238 6 gusting 8 24.4
2016-Jul-28 10:10 217 5 gusting 8 24.4
2016-Jul-28 10:05 216 2 gusting 6 24.4
2016-Jul-28 10:00 247 2 gusting 7 24.4
2016-Jul-28 09:55 190 4 gusting 6 23.9
2016-Jul-28 09:50 243 4 gusting 6 23.9
2016-Jul-28 09:45 189 2 gusting 6 23.9
2016-Jul-28 09:40 223 5 gusting 8 23.9
2016-Jul-28 09:30 243 2 gusting 6 23.9
2016-Jul-28 09:20 247 1 gusting 6 23.9
2016-Jul-28 09:15 209 3 gusting 6 24.4
2016-Jul-28 09:10 200 23.9
2016-Jul-28 09:05 246 0 gusting 2 23.9
2016-Jul-28 09:00 246 1 gusting 2 23.9
2016-Jul-28 08:55 246 0 gusting 2 23.3
2016-Jul-28 08:50 013 23.3
2016-Jul-28 08:45 317 0 gusting 2 22.8
2016-Jul-28 08:40 262 1 gusting 2 22.8
2016-Jul-28 08:35 286 0 gusting 2 22.8
2016-Jul-28 08:30 242 0 gusting 4 22.8
2016-Jul-28 08:25 236 1 gusting 5 22.8
2016-Jul-28 08:20 254 0 gusting 5 22.8
2016-Jul-28 08:15 220 2 gusting 5 22.8
2016-Jul-28 08:10 252 2 gusting 6 22.8
2016-Jul-28 08:05 258 2 gusting 5 22.8
2016-Jul-28 08:00 268 4 gusting 6 22.2
2016-Jul-28 07:55 254 1 gusting 6 22.2
2016-Jul-28 07:50 231 5 gusting 7 22.2
2016-Jul-28 07:45 241 3 gusting 6 21.7
2016-Jul-28 07:40 245 3 gusting 6 21.7
2016-Jul-28 07:35 246 2 gusting 4 21.7
2016-Jul-28 07:30 252 0 gusting 2 21.1
2016-Jul-28 07:25 282 1 gusting 2 21.1
2016-Jul-28 07:20 274 1 gusting 4 21.1
2016-Jul-28 07:15 235 21.1
2016-Jul-28 07:10 235 1 gusting 2 21.1
2016-Jul-28 07:05 235 21.1
2016-Jul-28 07:00 106 21.7
2016-Jul-28 06:55 106 21.1
2016-Jul-28 06:50 106 21.1
2016-Jul-28 06:45 106 21.1
2016-Jul-28 06:40 125 21.1
2016-Jul-28 06:35 125 21.1
2016-Jul-28 06:30 125 21.1
2016-Jul-28 06:25 125 21.7
2016-Jul-28 06:20 138 21.7
2016-Jul-28 06:15 142 0 gusting 2 21.7
2016-Jul-28 06:10 305 21.7
2016-Jul-28 06:05 305 21.7
2016-Jul-28 06:00 305 21.7
2016-Jul-28 05:55 305 21.7
2016-Jul-28 05:50 305 21.7
2016-Jul-28 05:45 291 0 gusting 4 21.7
2016-Jul-28 05:40 348 0 gusting 2 21.7
2016-Jul-28 05:35 329 0 gusting 4 21.7
2016-Jul-28 05:30 328 1 gusting 5 21.1
2016-Jul-28 05:25 343 0 gusting 4 21.1
2016-Jul-28 05:20 337 1 gusting 5 21.1
2016-Jul-28 05:15 315 4 gusting 5 21.1
2016-Jul-28 05:10 322 21.1
2016-Jul-28 05:05 306 21.1
2016-Jul-28 05:00 304 21.1
2016-Jul-28 04:55 291 2 gusting 5 21.1
2016-Jul-28 04:50 286 21.1
2016-Jul-28 04:45 298 1 gusting 5 21.1
2016-Jul-28 04:40 315 3 gusting 5 21.1
2016-Jul-28 04:35 308 2 gusting 4 21.1
2016-Jul-28 04:30 318 2 gusting 5 21.1
2016-Jul-28 04:25 316 1 gusting 4 21.1
2016-Jul-28 04:20 334 0 gusting 4 21.1
2016-Jul-28 04:15 313 2 gusting 4 21.1
2016-Jul-28 04:10 302 21.1
2016-Jul-28 04:05 274 1 gusting 4 21.1
2016-Jul-28 04:00 264 21.1
2016-Jul-28 03:55 264 1 gusting 2 21.7
2016-Jul-28 03:50 305 1 gusting 2 21.7
2016-Jul-28 03:45 225 21.7
2016-Jul-28 03:40 225 21.7
2016-Jul-28 03:35 226 1 gusting 2 21.7
2016-Jul-28 03:30 190 21.7
2016-Jul-28 03:25 246 21.7
2016-Jul-28 03:20 246 21.7
2016-Jul-28 03:15 246 21.7
2016-Jul-28 03:10 246 21.7
2016-Jul-28 03:05 246 21.7
2016-Jul-28 03:00 246 22.2